createdAt,value
2023-03-27T18:50:45.268Z,2.37
2023-03-27T18:51:45.257Z,2.33
2023-03-27T18:52:45.329Z,2.33
2023-03-27T18:53:45.188Z,2.30
2023-03-27T18:54:45.224Z,2.29
2023-03-27T18:55:45.183Z,2.30
2023-03-27T18:56:45.165Z,2.36
2023-03-27T18:57:45.175Z,2.36
2023-03-27T18:58:45.114Z,2.33
2023-03-27T18:59:45.167Z,2.38
2023-03-27T19:00:45.202Z,2.37
2023-03-27T19:01:45.113Z,2.38
2023-03-27T19:02:45.231Z,2.41
2023-03-27T19:03:45.075Z,2.40
2023-03-27T19:04:45.071Z,2.40
2023-03-27T19:05:45.016Z,2.38
2023-03-27T19:06:45.009Z,2.37
2023-03-27T19:07:45.364Z,2.37
2023-03-27T19:08:45.070Z,2.36
2023-03-27T19:09:44.965Z,2.36
2023-03-27T19:10:44.961Z,2.37
2023-03-27T19:11:45.019Z,2.37
2023-03-27T19:12:45.007Z,2.37
2023-03-27T19:13:45.012Z,2.37
2023-03-27T19:14:44.934Z,2.30
2023-03-27T19:15:44.913Z,2.30
2023-03-27T19:16:44.970Z,2.29
2023-03-27T19:17:45.058Z,2.27
2023-03-27T19:18:44.883Z,2.27
2023-03-27T19:19:46.537Z,2.23
2023-03-27T19:20:44.838Z,2.25
2023-03-27T19:21:44.849Z,2.20
2023-03-27T19:22:44.979Z,2.19
2023-03-27T19:23:44.798Z,2.15
2023-03-27T19:24:44.823Z,2.19
2023-03-27T19:25:44.794Z,2.18
2023-03-27T19:26:44.826Z,2.19
2023-03-27T19:27:44.782Z,2.18
2023-03-27T19:28:44.751Z,2.18
2023-03-27T19:29:44.720Z,2.15
2023-03-27T19:30:44.744Z,2.15
2023-03-27T19:31:44.715Z,2.11
2023-03-27T19:32:44.954Z,2.09
2023-03-27T19:33:44.765Z,2.11
2023-03-27T19:34:45.191Z,2.08
2023-03-27T19:35:44.768Z,2.09
2023-03-27T19:36:44.702Z,2.07
2023-03-27T19:37:44.664Z,2.05
2023-03-27T19:38:44.628Z,2.02
2023-03-27T19:39:44.677Z,2.01
2023-03-27T19:40:44.586Z,1.98
2023-03-27T19:41:44.578Z,1.98
2023-03-27T19:42:44.672Z,2.01
2023-03-27T19:43:44.593Z,2.00
2023-03-27T19:44:45.389Z,2.02
2023-03-27T19:45:44.596Z,2.04
2023-03-27T19:46:44.700Z,2.07
2023-03-27T19:47:44.588Z,2.09
2023-03-27T19:48:44.713Z,2.09
2023-03-27T19:49:44.742Z,2.12
2023-03-27T19:50:44.474Z,2.14
2023-03-27T19:51:44.445Z,2.14
2023-03-27T19:52:47.654Z,2.15
2023-03-27T19:53:45.455Z,2.14
2023-03-27T19:54:44.465Z,2.19
2023-03-27T19:55:44.410Z,2.15
2023-03-27T19:56:44.704Z,2.15
2023-03-27T19:57:44.405Z,2.14
2023-03-27T19:58:44.416Z,2.12
2023-03-27T19:59:44.380Z,2.09
2023-03-27T20:00:44.316Z,2.12
2023-03-27T20:01:44.530Z,2.09
2023-03-27T20:02:44.522Z,2.08
2023-03-27T20:03:44.418Z,2.08
2023-03-27T20:04:44.491Z,2.05
2023-03-27T20:05:44.443Z,2.07
2023-03-27T20:06:44.266Z,2.09
2023-03-27T20:07:44.894Z,2.09
2023-03-27T20:08:44.218Z,2.05
2023-03-27T20:09:44.268Z,2.00
2023-03-27T20:10:44.302Z,2.00
2023-03-27T20:11:44.431Z,2.01
2023-03-27T20:12:44.421Z,1.98
2023-03-27T20:13:55.542Z,1.98
2023-03-27T20:14:53.920Z,1.98
2023-03-27T20:15:45.407Z,1.98
2023-03-27T20:16:44.189Z,1.93
2023-03-27T20:17:44.252Z,1.93
2023-03-27T20:18:44.112Z,2.01
2023-03-27T20:19:44.091Z,2.02
2023-03-27T20:20:44.173Z,2.00
2023-03-27T20:21:44.198Z,2.00
2023-03-27T20:22:56.522Z,2.01
2023-03-27T20:23:45.370Z,1.92
2023-03-27T20:24:44.949Z,1.98
2023-03-27T20:25:44.155Z,1.95
2023-03-27T20:26:44.853Z,1.88
2023-03-27T20:27:44.169Z,1.88
2023-03-27T20:28:46.357Z,1.86
2023-03-27T20:29:44.047Z,1.86
2023-03-27T20:30:43.986Z,1.82
2023-03-27T20:31:44.262Z,1.82
2023-03-27T20:32:44.184Z,1.77
2023-03-27T20:33:44.057Z,1.75
2023-03-27T20:34:44.697Z,1.77
2023-03-27T20:35:44.534Z,1.71
2023-03-27T20:36:44.089Z,1.72
2023-03-27T20:37:43.937Z,1.77
2023-03-27T20:38:45.633Z,1.75
2023-03-27T20:39:43.841Z,1.75
2023-03-27T20:40:52.805Z,1.75
2023-03-27T20:41:44.817Z,1.75
2023-03-27T20:42:43.780Z,1.72
2023-03-27T20:43:43.956Z,1.70
2023-03-27T20:44:43.773Z,1.67
2023-03-27T20:45:43.752Z,1.67
2023-03-27T20:46:43.758Z,1.67
2023-03-27T20:47:43.832Z,1.64
2023-03-27T20:48:43.734Z,1.65
2023-03-27T20:49:44.700Z,1.64
2023-03-27T20:50:43.682Z,1.65
2023-03-27T20:51:43.692Z,1.65
2023-03-27T20:52:43.827Z,1.68
2023-03-27T20:53:43.687Z,1.67
2023-03-27T20:54:43.641Z,1.64
2023-03-27T20:55:53.164Z,1.70
2023-03-27T20:56:44.632Z,1.67
2023-03-27T20:57:43.626Z,1.68
2023-03-27T20:58:43.621Z,1.67
2023-03-27T20:59:45.589Z,1.67
2023-03-27T21:00:43.641Z,1.64
2023-03-27T21:01:43.568Z,1.65
2023-03-27T21:02:43.693Z,1.61
2023-03-27T21:03:43.555Z,1.61
2023-03-27T21:04:43.511Z,1.65
2023-03-27T21:05:43.495Z,1.61
2023-03-27T21:06:43.476Z,1.63
2023-03-27T21:07:43.586Z,1.67
2023-03-27T21:08:43.557Z,1.61
2023-03-27T21:09:43.449Z,1.63
2023-03-27T21:10:43.432Z,1.63
2023-03-27T21:11:43.471Z,1.61
2023-03-27T21:12:43.403Z,1.63
2023-03-27T21:13:43.418Z,1.65
2023-03-27T21:14:43.399Z,1.65
2023-03-27T21:15:43.417Z,1.68
2023-03-27T21:16:43.448Z,1.61
2023-03-27T21:17:43.606Z,1.64
2023-03-27T21:18:45.663Z,1.57
2023-03-27T21:19:43.323Z,1.60
2023-03-27T21:20:47.528Z,1.56
2023-03-27T21:21:43.367Z,1.54
2023-03-27T21:22:43.303Z,1.50
2023-03-27T21:23:43.757Z,1.49
2023-03-27T21:24:44.006Z,1.50
2023-03-27T21:25:43.277Z,1.52
2023-03-27T21:26:43.247Z,1.49
2023-03-27T21:27:43.210Z,1.49
2023-03-27T21:28:43.234Z,1.52
2023-03-27T21:29:43.192Z,1.53
2023-03-27T21:30:47.217Z,1.53
2023-03-27T21:31:43.218Z,1.53
2023-03-27T21:32:43.391Z,1.53
2023-03-27T21:33:43.257Z,1.53
2023-03-27T21:34:43.251Z,1.54
2023-03-27T21:35:43.397Z,1.60
2023-03-27T21:36:43.216Z,1.60
2023-03-27T21:37:43.199Z,1.57
2023-03-27T21:38:43.264Z,1.60
2023-03-27T21:39:43.263Z,1.56
2023-03-27T21:40:43.182Z,1.54
2023-03-27T21:41:43.144Z,1.60
2023-03-27T21:42:45.822Z,1.57
2023-03-27T21:43:43.351Z,1.61
2023-03-27T21:44:47.016Z,1.61
2023-03-27T21:45:44.135Z,1.57
2023-03-27T21:46:43.173Z,1.56
2023-03-27T21:47:47.476Z,1.60
2023-03-27T21:48:43.232Z,1.56
2023-03-27T21:49:43.195Z,1.54
2023-03-27T21:50:43.035Z,1.56
2023-03-27T21:51:42.917Z,1.57
2023-03-27T21:52:42.921Z,1.61
2023-03-27T21:53:42.915Z,1.60
2023-03-27T21:54:49.994Z,1.67
2023-03-27T21:55:44.014Z,1.67
2023-03-27T21:56:42.858Z,1.71
2023-03-27T21:57:42.833Z,1.74
2023-03-27T21:58:42.851Z,1.74
2023-03-27T21:59:42.812Z,1.72
2023-03-27T22:00:42.793Z,1.75
2023-03-27T22:01:42.893Z,1.75
2023-03-27T22:02:42.853Z,1.74
2023-03-27T22:03:42.802Z,1.75
2023-03-27T22:04:42.779Z,1.74
2023-03-27T22:05:42.771Z,1.79
2023-03-27T22:06:42.743Z,1.77
2023-03-27T22:07:42.715Z,1.79
2023-03-27T22:08:42.856Z,1.75
2023-03-27T22:09:42.690Z,1.74
2023-03-27T22:10:42.680Z,1.74
2023-03-27T22:11:42.653Z,1.70
2023-03-27T22:12:42.627Z,1.70
2023-03-27T22:13:42.663Z,1.64
2023-03-27T22:14:42.602Z,1.68
2023-03-27T22:15:42.671Z,1.67
2023-03-27T22:16:42.588Z,1.68
2023-03-27T22:17:43.583Z,1.63
2023-03-27T22:18:42.596Z,1.61
2023-03-27T22:19:42.573Z,1.61
2023-03-27T22:20:42.530Z,1.60
2023-03-27T22:21:42.523Z,1.56
2023-03-27T22:22:42.509Z,1.60
2023-03-27T22:23:42.582Z,1.57
2023-03-27T22:24:42.478Z,1.56
2023-03-27T22:25:42.478Z,1.54
2023-03-27T22:26:42.456Z,1.52
2023-03-27T22:27:42.448Z,1.53
2023-03-27T22:28:42.485Z,1.53
2023-03-27T22:29:42.419Z,1.49
2023-03-27T22:30:42.409Z,1.47
2023-03-27T22:31:42.473Z,1.47
2023-03-27T22:32:42.427Z,1.47
2023-03-27T22:33:42.420Z,1.47
2023-03-27T22:34:42.359Z,1.47
2023-03-27T22:35:42.507Z,1.50
2023-03-27T22:36:42.332Z,1.50
2023-03-27T22:37:42.326Z,1.54
2023-03-27T22:38:42.327Z,1.57
2023-03-27T22:39:42.285Z,1.61
2023-03-27T22:40:42.277Z,1.63
2023-03-27T22:41:42.272Z,1.64
2023-03-27T22:42:42.273Z,1.65
2023-03-27T22:43:42.331Z,1.67
2023-03-27T22:44:42.224Z,1.70
2023-03-27T22:45:42.227Z,1.71
2023-03-27T22:46:42.277Z,1.72
2023-03-27T22:47:42.287Z,1.71
2023-03-27T22:48:42.214Z,1.72
2023-03-27T22:49:42.156Z,1.72
2023-03-27T22:50:42.180Z,1.71
2023-03-27T22:51:42.152Z,1.72
2023-03-27T22:52:42.120Z,1.72
2023-03-27T22:53:42.200Z,1.67
2023-03-27T22:54:42.085Z,1.67
2023-03-27T22:55:42.233Z,1.67
2023-03-27T22:56:42.127Z,1.65
2023-03-27T22:57:42.061Z,1.65
2023-03-27T22:58:42.077Z,1.64
2023-03-27T22:59:42.151Z,1.61
2023-03-27T23:00:42.012Z,1.60
2023-03-27T23:01:42.021Z,1.64
2023-03-27T23:02:42.062Z,1.61
2023-03-27T23:03:42.126Z,1.57
2023-03-27T23:04:41.958Z,1.60
2023-03-27T23:05:41.968Z,1.57
2023-03-27T23:06:41.953Z,1.56
2023-03-27T23:07:41.938Z,1.56
2023-03-27T23:08:42.010Z,1.54
2023-03-27T23:09:41.927Z,1.52
2023-03-27T23:10:41.919Z,1.54
2023-03-27T23:11:41.915Z,1.53
2023-03-27T23:12:41.888Z,1.53
2023-03-27T23:13:41.891Z,1.52
2023-03-27T23:14:41.852Z,1.53
2023-03-27T23:15:41.826Z,1.54
2023-03-27T23:16:41.905Z,1.54
2023-03-27T23:17:41.824Z,1.52
2023-03-27T23:18:41.825Z,1.49
2023-03-27T23:19:41.793Z,1.53
2023-03-27T23:20:41.822Z,1.52
2023-03-27T23:21:41.768Z,1.52
2023-03-27T23:22:41.729Z,1.52
2023-03-27T23:23:41.760Z,1.53
2023-03-27T23:24:41.713Z,1.54
2023-03-27T23:25:41.808Z,1.53
2023-03-27T23:26:41.697Z,1.56
2023-03-27T23:27:41.672Z,1.53
2023-03-27T23:28:41.708Z,1.56
2023-03-27T23:29:41.664Z,1.60
2023-03-27T23:30:41.625Z,1.63
2023-03-27T23:31:41.655Z,1.61
2023-03-27T23:32:41.669Z,1.67
2023-03-27T23:33:41.647Z,1.68
2023-03-27T23:34:41.587Z,1.68
2023-03-27T23:35:41.669Z,1.68
2023-03-27T23:36:41.564Z,1.71
2023-03-27T23:37:41.554Z,1.71
2023-03-27T23:38:41.554Z,1.72
2023-03-27T23:39:41.554Z,1.72
2023-03-27T23:40:41.516Z,1.72
2023-03-27T23:41:41.507Z,1.77
2023-03-27T23:42:42.420Z,1.77
2023-03-27T23:43:41.591Z,1.79
2023-03-27T23:44:41.451Z,1.75
2023-03-27T23:45:41.464Z,1.79
2023-03-27T23:46:41.423Z,1.82
2023-03-27T23:47:41.438Z,1.79
2023-03-27T23:48:41.433Z,1.82
2023-03-27T23:49:41.392Z,1.82
2023-03-27T23:50:41.373Z,1.83
2023-03-27T23:51:41.357Z,1.81
2023-03-27T23:52:41.341Z,1.81
2023-03-27T23:53:41.364Z,1.83
2023-03-27T23:54:41.385Z,1.85
2023-03-27T23:55:41.331Z,1.83
2023-03-27T23:56:41.329Z,1.86
2023-03-27T23:57:41.283Z,1.86
2023-03-27T23:58:41.295Z,1.86
2023-03-27T23:59:41.276Z,1.85
